sensor_id;sensor_type;location;lat;lon;timestamp;P1;durP1;ratioP1;P2;durP2;ratioP2
55672;SDS011;41554;45.366;20.400;2022-09-03T00:00:53;10.57;;;7.95;;
55672;SDS011;41554;45.366;20.400;2022-09-03T00:13:51;11.02;;;7.22;;
55672;SDS011;41554;45.366;20.400;2022-09-03T00:16:20;8.45;;;7.00;;
55672;SDS011;41554;45.366;20.400;2022-09-03T00:18:52;10.15;;;7.20;;
55672;SDS011;41554;45.366;20.400;2022-09-03T00:21:40;10.38;;;7.03;;
55672;SDS011;41554;45.366;20.400;2022-09-03T00:24:09;9.02;;;8.13;;
55672;SDS011;41554;45.366;20.400;2022-09-03T00:26:36;8.13;;;6.25;;
55672;SDS011;41554;45.366;20.400;2022-09-03T00:29:08;7.53;;;6.43;;
55672;SDS011;41554;45.366;20.400;2022-09-03T00:34:10;9.35;;;6.85;;
55672;SDS011;41554;45.366;20.400;2022-09-03T00:36:40;9.15;;;6.38;;
55672;SDS011;41554;45.366;20.400;2022-09-03T00:39:11;10.63;;;6.88;;
55672;SDS011;41554;45.366;20.400;2022-09-03T00:41:38;8.90;;;6.68;;
55672;SDS011;41554;45.366;20.400;2022-09-03T00:46:46;7.20;;;6.22;;
55672;SDS011;41554;45.366;20.400;2022-09-03T00:54:29;6.93;;;5.15;;
55672;SDS011;41554;45.366;20.400;2022-09-03T01:07:45;8.73;;;6.57;;
55672;SDS011;41554;45.366;20.400;2022-09-03T01:13:00;13.25;;;5.80;;
55672;SDS011;41554;45.366;20.400;2022-09-03T01:18:26;8.95;;;6.65;;
55672;SDS011;41554;45.366;20.400;2022-09-03T01:21:04;13.05;;;7.53;;
55672;SDS011;41554;45.366;20.400;2022-09-03T01:23:42;10.18;;;7.07;;
55672;SDS011;41554;45.366;20.400;2022-09-03T01:29:05;8.98;;;6.60;;
55672;SDS011;41554;45.366;20.400;2022-09-03T01:42:22;10.00;;;6.78;;
55672;SDS011;41554;45.366;20.400;2022-09-03T01:47:40;7.22;;;5.60;;
55672;SDS011;41554;45.366;20.400;2022-09-03T01:52:51;12.90;;;8.57;;
55672;SDS011;41554;45.366;20.400;2022-09-03T01:57:51;8.48;;;6.72;;
55672;SDS011;41554;45.366;20.400;2022-09-03T02:00:20;11.63;;;5.40;;
55672;SDS011;41554;45.366;20.400;2022-09-03T02:02:50;8.35;;;6.22;;
55672;SDS011;41554;45.366;20.400;2022-09-03T02:10:13;7.10;;;5.72;;
55672;SDS011;41554;45.366;20.400;2022-09-03T02:12:39;10.68;;;6.05;;
55672;SDS011;41554;45.366;20.400;2022-09-03T02:15:11;7.47;;;6.63;;
55672;SDS011;41554;45.366;20.400;2022-09-03T02:17:37;7.80;;;6.28;;
55672;SDS011;41554;45.366;20.400;2022-09-03T02:20:06;9.85;;;7.15;;
55672;SDS011;41554;45.366;20.400;2022-09-03T02:22:36;8.23;;;6.13;;
55672;SDS011;41554;45.366;20.400;2022-09-03T02:25:03;9.32;;;5.95;;
55672;SDS011;41554;45.366;20.400;2022-09-03T02:27:29;9.38;;;6.88;;
55672;SDS011;41554;45.366;20.400;2022-09-03T02:29:56;9.82;;;6.45;;
55672;SDS011;41554;45.366;20.400;2022-09-03T02:32:23;7.63;;;6.57;;
55672;SDS011;41554;45.366;20.400;2022-09-03T02:34:49;8.43;;;6.35;;
55672;SDS011;41554;45.366;20.400;2022-09-03T02:37:17;9.23;;;7.28;;
55672;SDS011;41554;45.366;20.400;2022-09-03T02:39:43;12.85;;;8.10;;
55672;SDS011;41554;45.366;20.400;2022-09-03T02:42:11;10.60;;;7.10;;
55672;SDS011;41554;45.366;20.400;2022-09-03T02:44:41;6.25;;;5.57;;
55672;SDS011;41554;45.366;20.400;2022-09-03T02:47:08;10.18;;;6.10;;
55672;SDS011;41554;45.366;20.400;2022-09-03T02:49:35;18.10;;;7.25;;
55672;SDS011;41554;45.366;20.400;2022-09-03T02:52:02;6.63;;;5.95;;
55672;SDS011;41554;45.366;20.400;2022-09-03T02:54:30;9.03;;;7.03;;
55672;SDS011;41554;45.366;20.400;2022-09-03T02:56:57;8.68;;;6.43;;
55672;SDS011;41554;45.366;20.400;2022-09-03T02:59:24;8.10;;;6.65;;
55672;SDS011;41554;45.366;20.400;2022-09-03T03:01:52;11.35;;;6.07;;
55672;SDS011;41554;45.366;20.400;2022-09-03T03:04:19;7.97;;;6.07;;
55672;SDS011;41554;45.366;20.400;2022-09-03T03:06:45;7.97;;;6.80;;
55672;SDS011;41554;45.366;20.400;2022-09-03T03:09:11;22.67;;;7.65;;
55672;SDS011;41554;45.366;20.400;2022-09-03T03:11:37;7.07;;;6.38;;
55672;SDS011;41554;45.366;20.400;2022-09-03T03:14:04;8.85;;;7.95;;
55672;SDS011;41554;45.366;20.400;2022-09-03T03:16:30;18.00;;;5.70;;
55672;SDS011;41554;45.366;20.400;2022-09-03T03:18:56;10.55;;;8.43;;
55672;SDS011;41554;45.366;20.400;2022-09-03T03:21:24;7.63;;;6.68;;
55672;SDS011;41554;45.366;20.400;2022-09-03T03:23:50;9.60;;;7.32;;
55672;SDS011;41554;45.366;20.400;2022-09-03T03:26:17;7.90;;;7.07;;
55672;SDS011;41554;45.366;20.400;2022-09-03T03:28:43;11.18;;;6.82;;
55672;SDS011;41554;45.366;20.400;2022-09-03T03:31:15;8.70;;;6.43;;
55672;SDS011;41554;45.366;20.400;2022-09-03T03:33:41;7.90;;;6.15;;
55672;SDS011;41554;45.366;20.400;2022-09-03T03:36:09;10.98;;;6.50;;
55672;SDS011;41554;45.366;20.400;2022-09-03T03:38:35;12.07;;;6.53;;
55672;SDS011;41554;45.366;20.400;2022-09-03T03:43:37;8.40;;;7.50;;
55672;SDS011;41554;45.366;20.400;2022-09-03T03:46:03;10.13;;;8.23;;
55672;SDS011;41554;45.366;20.400;2022-09-03T03:48:30;10.82;;;7.93;;
55672;SDS011;41554;45.366;20.400;2022-09-03T03:51:00;9.23;;;7.85;;
55672;SDS011;41554;45.366;20.400;2022-09-03T03:53:27;14.90;;;9.52;;
55672;SDS011;41554;45.366;20.400;2022-09-03T03:55:56;8.57;;;6.95;;
55672;SDS011;41554;45.366;20.400;2022-09-03T03:58:23;13.60;;;8.82;;
55672;SDS011;41554;45.366;20.400;2022-09-03T04:00:52;10.73;;;9.13;;
55672;SDS011;41554;45.366;20.400;2022-09-03T04:03:18;12.77;;;8.07;;
55672;SDS011;41554;45.366;20.400;2022-09-03T04:05:54;10.82;;;7.95;;
55672;SDS011;41554;45.366;20.400;2022-09-03T04:08:21;10.85;;;7.60;;
55672;SDS011;41554;45.366;20.400;2022-09-03T04:10:47;13.20;;;10.55;;
55672;SDS011;41554;45.366;20.400;2022-09-03T04:13:14;15.18;;;9.68;;
55672;SDS011;41554;45.366;20.400;2022-09-03T04:15:40;13.07;;;8.45;;
55672;SDS011;41554;45.366;20.400;2022-09-03T04:18:06;15.63;;;11.05;;
55672;SDS011;41554;45.366;20.400;2022-09-03T04:20:32;11.75;;;8.75;;
55672;SDS011;41554;45.366;20.400;2022-09-03T04:22:59;14.52;;;10.52;;
55672;SDS011;41554;45.366;20.400;2022-09-03T04:25:25;14.82;;;10.15;;
55672;SDS011;41554;45.366;20.400;2022-09-03T04:27:51;14.27;;;9.98;;
55672;SDS011;41554;45.366;20.400;2022-09-03T04:30:18;17.98;;;9.98;;
55672;SDS011;41554;45.366;20.400;2022-09-03T04:32:44;13.80;;;9.45;;
55672;SDS011;41554;45.366;20.400;2022-09-03T04:35:21;12.20;;;10.15;;
55672;SDS011;41554;45.366;20.400;2022-09-03T04:37:47;11.93;;;9.15;;
55672;SDS011;41554;45.366;20.400;2022-09-03T04:40:13;11.70;;;8.38;;
55672;SDS011;41554;45.366;20.400;2022-09-03T04:42:40;13.07;;;10.10;;
55672;SDS011;41554;45.366;20.400;2022-09-03T04:45:06;12.63;;;9.38;;
55672;SDS011;41554;45.366;20.400;2022-09-03T04:47:32;10.30;;;8.30;;
55672;SDS011;41554;45.366;20.400;2022-09-03T04:50:01;11.50;;;8.70;;
55672;SDS011;41554;45.366;20.400;2022-09-03T04:52:27;13.20;;;9.43;;
55672;SDS011;41554;45.366;20.400;2022-09-03T04:54:56;12.55;;;9.07;;
55672;SDS011;41554;45.366;20.400;2022-09-03T04:57:23;12.00;;;8.82;;
55672;SDS011;41554;45.366;20.400;2022-09-03T04:59:49;14.55;;;10.00;;
55672;SDS011;41554;45.366;20.400;2022-09-03T05:02:15;13.63;;;10.90;;
55672;SDS011;41554;45.366;20.400;2022-09-03T05:04:41;19.67;;;9.38;;
55672;SDS011;41554;45.366;20.400;2022-09-03T05:07:07;11.80;;;8.95;;
55672;SDS011;41554;45.366;20.400;2022-09-03T05:09:34;11.90;;;9.65;;
55672;SDS011;41554;45.366;20.400;2022-09-03T05:12:00;10.57;;;9.02;;
55672;SDS011;41554;45.366;20.400;2022-09-03T05:14:26;15.88;;;10.18;;
55672;SDS011;41554;45.366;20.400;2022-09-03T05:16:52;16.83;;;14.43;;
55672;SDS011;41554;45.366;20.400;2022-09-03T05:19:18;27.17;;;20.08;;
55672;SDS011;41554;45.366;20.400;2022-09-03T05:21:44;28.23;;;21.38;;
55672;SDS011;41554;45.366;20.400;2022-09-03T05:24:10;21.95;;;16.27;;
55672;SDS011;41554;45.366;20.400;2022-09-03T05:26:37;18.58;;;16.65;;
55672;SDS011;41554;45.366;20.400;2022-09-03T05:29:04;19.63;;;14.07;;
55672;SDS011;41554;45.366;20.400;2022-09-03T05:31:35;13.98;;;12.68;;
55672;SDS011;41554;45.366;20.400;2022-09-03T05:34:03;13.40;;;11.70;;
55672;SDS011;41554;45.366;20.400;2022-09-03T05:36:31;12.35;;;10.32;;
55672;SDS011;41554;45.366;20.400;2022-09-03T05:38:59;12.95;;;11.55;;
55672;SDS011;41554;45.366;20.400;2022-09-03T05:41:25;13.25;;;9.35;;
55672;SDS011;41554;45.366;20.400;2022-09-03T05:43:52;11.10;;;9.88;;
55672;SDS011;41554;45.366;20.400;2022-09-03T05:46:23;13.77;;;9.07;;
55672;SDS011;41554;45.366;20.400;2022-09-03T05:48:55;11.60;;;8.85;;
55672;SDS011;41554;45.366;20.400;2022-09-03T05:51:21;20.33;;;10.93;;
55672;SDS011;41554;45.366;20.400;2022-09-03T05:53:47;12.00;;;9.40;;
55672;SDS011;41554;45.366;20.400;2022-09-03T05:56:14;10.63;;;8.88;;
55672;SDS011;41554;45.366;20.400;2022-09-03T05:58:42;10.55;;;8.27;;
55672;SDS011;41554;45.366;20.400;2022-09-03T06:01:12;15.25;;;8.00;;
55672;SDS011;41554;45.366;20.400;2022-09-03T06:03:39;18.33;;;7.75;;
55672;SDS011;41554;45.366;20.400;2022-09-03T06:06:06;10.45;;;7.05;;
55672;SDS011;41554;45.366;20.400;2022-09-03T06:08:32;18.75;;;7.68;;
55672;SDS011;41554;45.366;20.400;2022-09-03T06:10:59;9.27;;;6.60;;
55672;SDS011;41554;45.366;20.400;2022-09-03T06:13:25;11.38;;;7.40;;
55672;SDS011;41554;45.366;20.400;2022-09-03T06:15:58;7.45;;;6.28;;
55672;SDS011;41554;45.366;20.400;2022-09-03T06:18:25;14.35;;;8.70;;
55672;SDS011;41554;45.366;20.400;2022-09-03T06:20:55;19.77;;;10.80;;
55672;SDS011;41554;45.366;20.400;2022-09-03T06:23:22;13.52;;;8.77;;
55672;SDS011;41554;45.366;20.400;2022-09-03T06:25:58;11.25;;;8.77;;
55672;SDS011;41554;45.366;20.400;2022-09-03T06:28:24;11.38;;;8.95;;
55672;SDS011;41554;45.366;20.400;2022-09-03T06:30:51;11.45;;;9.48;;
55672;SDS011;41554;45.366;20.400;2022-09-03T06:33:17;18.30;;;10.50;;
55672;SDS011;41554;45.366;20.400;2022-09-03T06:35:43;18.42;;;11.80;;
55672;SDS011;41554;45.366;20.400;2022-09-03T06:38:10;13.65;;;9.48;;
55672;SDS011;41554;45.366;20.400;2022-09-03T06:40:37;12.80;;;7.20;;
55672;SDS011;41554;45.366;20.400;2022-09-03T06:43:03;21.00;;;9.20;;
55672;SDS011;41554;45.366;20.400;2022-09-03T06:45:30;12.55;;;10.40;;
55672;SDS011;41554;45.366;20.400;2022-09-03T06:47:56;11.10;;;8.50;;
55672;SDS011;41554;45.366;20.400;2022-09-03T06:50:22;10.13;;;8.27;;
55672;SDS011;41554;45.366;20.400;2022-09-03T06:52:52;10.27;;;7.93;;
55672;SDS011;41554;45.366;20.400;2022-09-03T06:55:21;11.07;;;7.25;;
55672;SDS011;41554;45.366;20.400;2022-09-03T06:57:47;11.77;;;6.55;;
55672;SDS011;41554;45.366;20.400;2022-09-03T07:00:15;7.97;;;6.43;;
55672;SDS011;41554;45.366;20.400;2022-09-03T07:02:41;6.57;;;5.93;;
55672;SDS011;41554;45.366;20.400;2022-09-03T07:05:09;7.32;;;5.88;;
55672;SDS011;41554;45.366;20.400;2022-09-03T07:07:35;8.40;;;6.35;;
55672;SDS011;41554;45.366;20.400;2022-09-03T07:10:02;10.32;;;6.40;;
55672;SDS011;41554;45.366;20.400;2022-09-03T07:12:30;9.82;;;6.13;;
55672;SDS011;41554;45.366;20.400;2022-09-03T07:14:58;9.75;;;6.38;;
55672;SDS011;41554;45.366;20.400;2022-09-03T07:17:25;7.53;;;5.72;;
55672;SDS011;41554;45.366;20.400;2022-09-03T07:19:51;14.75;;;6.65;;
55672;SDS011;41554;45.366;20.400;2022-09-03T07:22:17;8.25;;;6.05;;
55672;SDS011;41554;45.366;20.400;2022-09-03T07:24:43;10.10;;;6.07;;
55672;SDS011;41554;45.366;20.400;2022-09-03T07:27:11;5.05;;;4.13;;
55672;SDS011;41554;45.366;20.400;2022-09-03T07:29:37;6.00;;;4.72;;
55672;SDS011;41554;45.366;20.400;2022-09-03T07:32:03;8.63;;;5.15;;
55672;SDS011;41554;45.366;20.400;2022-09-03T07:34:30;6.25;;;4.47;;
55672;SDS011;41554;45.366;20.400;2022-09-03T07:36:59;7.15;;;5.97;;
55672;SDS011;41554;45.366;20.400;2022-09-03T07:39:25;7.13;;;4.75;;
55672;SDS011;41554;45.366;20.400;2022-09-03T07:41:52;11.00;;;6.50;;
55672;SDS011;41554;45.366;20.400;2022-09-03T07:44:18;7.25;;;5.22;;
55672;SDS011;41554;45.366;20.400;2022-09-03T07:46:46;6.65;;;5.03;;
55672;SDS011;41554;45.366;20.400;2022-09-03T07:49:14;6.88;;;5.90;;
55672;SDS011;41554;45.366;20.400;2022-09-03T07:51:41;10.95;;;6.18;;
55672;SDS011;41554;45.366;20.400;2022-09-03T07:54:08;9.68;;;7.32;;
55672;SDS011;41554;45.366;20.400;2022-09-03T07:56:35;7.80;;;5.95;;
55672;SDS011;41554;45.366;20.400;2022-09-03T07:59:02;5.45;;;4.00;;
55672;SDS011;41554;45.366;20.400;2022-09-03T08:01:29;11.07;;;7.25;;
55672;SDS011;41554;45.366;20.400;2022-09-03T08:03:56;7.57;;;6.07;;
55672;SDS011;41554;45.366;20.400;2022-09-03T08:06:23;11.05;;;5.40;;
55672;SDS011;41554;45.366;20.400;2022-09-03T08:08:53;7.05;;;5.25;;
55672;SDS011;41554;45.366;20.400;2022-09-03T08:11:21;7.10;;;5.05;;
55672;SDS011;41554;45.366;20.400;2022-09-03T08:14:20;6.88;;;4.78;;
55672;SDS011;41554;45.366;20.400;2022-09-03T08:16:41;7.00;;;5.20;;
55672;SDS011;41554;45.366;20.400;2022-09-03T08:19:07;6.40;;;4.47;;
55672;SDS011;41554;45.366;20.400;2022-09-03T08:21:35;6.65;;;5.43;;
55672;SDS011;41554;45.366;20.400;2022-09-03T08:24:01;7.75;;;5.45;;
55672;SDS011;41554;45.366;20.400;2022-09-03T08:26:34;7.20;;;5.03;;
55672;SDS011;41554;45.366;20.400;2022-09-03T08:29:01;8.05;;;6.28;;
55672;SDS011;41554;45.366;20.400;2022-09-03T08:31:28;6.13;;;4.97;;
55672;SDS011;41554;45.366;20.400;2022-09-03T08:33:55;5.65;;;4.70;;
55672;SDS011;41554;45.366;20.400;2022-09-03T08:36:25;7.20;;;5.25;;
55672;SDS011;41554;45.366;20.400;2022-09-03T08:38:52;11.57;;;6.93;;
55672;SDS011;41554;45.366;20.400;2022-09-03T08:41:31;6.55;;;5.50;;
55672;SDS011;41554;45.366;20.400;2022-09-03T08:49:10;6.80;;;5.50;;
55672;SDS011;41554;45.366;20.400;2022-09-03T08:51:37;6.10;;;5.20;;
55672;SDS011;41554;45.366;20.400;2022-09-03T08:54:04;10.88;;;5.82;;
55672;SDS011;41554;45.366;20.400;2022-09-03T08:56:33;7.22;;;5.03;;
55672;SDS011;41554;45.366;20.400;2022-09-03T08:59:03;7.35;;;5.32;;
55672;SDS011;41554;45.366;20.400;2022-09-03T09:04:34;10.10;;;5.82;;
55672;SDS011;41554;45.366;20.400;2022-09-03T09:10:08;8.30;;;5.45;;
55672;SDS011;41554;45.366;20.400;2022-09-03T09:16:18;8.10;;;5.80;;
55672;SDS011;41554;45.366;20.400;2022-09-03T09:23:54;7.63;;;6.00;;
55672;SDS011;41554;45.366;20.400;2022-09-03T09:26:26;9.50;;;6.15;;
55672;SDS011;41554;45.366;20.400;2022-09-03T09:28:57;6.38;;;4.80;;
55672;SDS011;41554;45.366;20.400;2022-09-03T09:31:26;10.60;;;6.85;;
55672;SDS011;41554;45.366;20.400;2022-09-03T09:33:55;8.00;;;6.25;;
55672;SDS011;41554;45.366;20.400;2022-09-03T09:36:25;8.73;;;6.55;;
55672;SDS011;41554;45.366;20.400;2022-09-03T09:38:52;8.52;;;6.10;;
55672;SDS011;41554;45.366;20.400;2022-09-03T09:41:19;8.32;;;6.88;;
55672;SDS011;41554;45.366;20.400;2022-09-03T09:43:47;10.40;;;5.45;;
55672;SDS011;41554;45.366;20.400;2022-09-03T09:46:26;10.50;;;6.43;;
55672;SDS011;41554;45.366;20.400;2022-09-03T09:48:56;11.32;;;5.82;;
55672;SDS011;41554;45.366;20.400;2022-09-03T09:51:26;8.63;;;7.00;;
55672;SDS011;41554;45.366;20.400;2022-09-03T09:54:15;10.18;;;7.47;;
55672;SDS011;41554;45.366;20.400;2022-09-03T09:56:44;9.70;;;6.72;;
55672;SDS011;41554;45.366;20.400;2022-09-03T09:59:11;7.00;;;5.47;;
55672;SDS011;41554;45.366;20.400;2022-09-03T10:01:39;7.30;;;5.38;;
55672;SDS011;41554;45.366;20.400;2022-09-03T10:06:35;7.93;;;6.33;;
55672;SDS011;41554;45.366;20.400;2022-09-03T10:09:25;8.63;;;5.72;;
55672;SDS011;41554;45.366;20.400;2022-09-03T10:11:57;6.50;;;4.93;;
55672;SDS011;41554;45.366;20.400;2022-09-03T10:14:33;11.32;;;6.68;;
55672;SDS011;41554;45.366;20.400;2022-09-03T10:17:08;6.65;;;5.05;;
55672;SDS011;41554;45.366;20.400;2022-09-03T10:22:48;6.43;;;4.75;;
55672;SDS011;41554;45.366;20.400;2022-09-03T10:25:16;6.57;;;5.40;;
55672;SDS011;41554;45.366;20.400;2022-09-03T10:27:45;6.78;;;4.78;;
55672;SDS011;41554;45.366;20.400;2022-09-03T10:30:12;9.05;;;6.15;;
55672;SDS011;41554;45.366;20.400;2022-09-03T10:38:00;10.40;;;5.70;;
55672;SDS011;41554;45.366;20.400;2022-09-03T10:40:40;5.65;;;4.43;;
55672;SDS011;41554;45.366;20.400;2022-09-03T10:51:23;9.27;;;4.13;;
55672;SDS011;41554;45.366;20.400;2022-09-03T10:54:09;6.82;;;5.10;;
55672;SDS011;41554;45.366;20.400;2022-09-03T10:59:42;4.55;;;3.85;;
55672;SDS011;41554;45.366;20.400;2022-09-03T11:05:20;7.50;;;5.47;;
55672;SDS011;41554;45.366;20.400;2022-09-03T11:10:27;6.85;;;4.30;;
55672;SDS011;41554;45.366;20.400;2022-09-03T11:13:06;6.93;;;5.63;;
55672;SDS011;41554;45.366;20.400;2022-09-03T11:18:28;6.05;;;4.63;;
55672;SDS011;41554;45.366;20.400;2022-09-03T11:20:59;6.18;;;4.90;;
55672;SDS011;41554;45.366;20.400;2022-09-03T11:23:30;8.13;;;5.78;;
55672;SDS011;41554;45.366;20.400;2022-09-03T11:26:01;5.15;;;3.95;;
55672;SDS011;41554;45.366;20.400;2022-09-03T11:33:37;6.25;;;4.57;;
55672;SDS011;41554;45.366;20.400;2022-09-03T11:36:05;6.47;;;5.43;;
55672;SDS011;41554;45.366;20.400;2022-09-03T11:38:31;7.15;;;5.53;;
55672;SDS011;41554;45.366;20.400;2022-09-03T11:48:42;6.88;;;4.72;;
55672;SDS011;41554;45.366;20.400;2022-09-03T11:51:19;36.40;;;24.52;;
55672;SDS011;41554;45.366;20.400;2022-09-03T11:53:55;17.83;;;12.52;;
55672;SDS011;41554;45.366;20.400;2022-09-03T11:56:22;14.93;;;9.68;;
55672;SDS011;41554;45.366;20.400;2022-09-03T12:01:33;8.75;;;5.68;;
55672;SDS011;41554;45.366;20.400;2022-09-03T12:04:02;15.55;;;6.53;;
55672;SDS011;41554;45.366;20.400;2022-09-03T12:11:43;5.47;;;4.43;;
55672;SDS011;41554;45.366;20.400;2022-09-03T12:19:25;14.18;;;6.85;;
55672;SDS011;41554;45.366;20.400;2022-09-03T12:21:52;7.50;;;5.20;;
55672;SDS011;41554;45.366;20.400;2022-09-03T12:24:20;6.25;;;4.50;;
55672;SDS011;41554;45.366;20.400;2022-09-03T12:26:47;9.00;;;5.88;;
55672;SDS011;41554;45.366;20.400;2022-09-03T12:29:23;11.55;;;5.30;;
55672;SDS011;41554;45.366;20.400;2022-09-03T12:31:50;11.88;;;5.78;;
55672;SDS011;41554;45.366;20.400;2022-09-03T12:34:17;7.05;;;4.35;;
55672;SDS011;41554;45.366;20.400;2022-09-03T12:36:47;9.55;;;5.60;;
55672;SDS011;41554;45.366;20.400;2022-09-03T12:39:21;10.00;;;6.22;;
55672;SDS011;41554;45.366;20.400;2022-09-03T12:47:01;5.72;;;4.00;;
55672;SDS011;41554;45.366;20.400;2022-09-03T12:49:37;9.75;;;5.63;;
55672;SDS011;41554;45.366;20.400;2022-09-03T12:52:06;7.75;;;4.90;;
55672;SDS011;41554;45.366;20.400;2022-09-03T12:54:39;7.53;;;5.25;;
55672;SDS011;41554;45.366;20.400;2022-09-03T12:57:08;7.05;;;5.60;;
55672;SDS011;41554;45.366;20.400;2022-09-03T12:59:34;7.47;;;5.75;;
55672;SDS011;41554;45.366;20.400;2022-09-03T13:02:04;5.15;;;3.85;;
55672;SDS011;41554;45.366;20.400;2022-09-03T13:04:31;13.68;;;5.05;;
55672;SDS011;41554;45.366;20.400;2022-09-03T13:09:25;8.30;;;5.07;;
55672;SDS011;41554;45.366;20.400;2022-09-03T13:11:54;10.27;;;8.75;;
55672;SDS011;41554;45.366;20.400;2022-09-03T13:14:20;5.55;;;4.45;;
55672;SDS011;41554;45.366;20.400;2022-09-03T13:16:58;8.38;;;5.50;;
55672;SDS011;41554;45.366;20.400;2022-09-03T13:21:55;4.50;;;3.85;;
55672;SDS011;41554;45.366;20.400;2022-09-03T13:24:38;8.07;;;6.43;;
55672;SDS011;41554;45.366;20.400;2022-09-03T13:27:22;7.47;;;4.38;;
55672;SDS011;41554;45.366;20.400;2022-09-03T13:34:46;4.85;;;3.78;;
55672;SDS011;41554;45.366;20.400;2022-09-03T13:39:55;5.18;;;4.05;;
55672;SDS011;41554;45.366;20.400;2022-09-03T13:44:51;4.38;;;3.97;;
55672;SDS011;41554;45.366;20.400;2022-09-03T13:50:30;5.88;;;3.67;;
55672;SDS011;41554;45.366;20.400;2022-09-03T13:53:06;3.85;;;3.40;;
55672;SDS011;41554;45.366;20.400;2022-09-03T13:55:47;17.67;;;4.32;;
55672;SDS011;41554;45.366;20.400;2022-09-03T13:58:30;5.00;;;4.50;;
55672;SDS011;41554;45.366;20.400;2022-09-03T14:09:14;4.70;;;3.15;;
55672;SDS011;41554;45.366;20.400;2022-09-03T14:17:15;4.20;;;2.90;;
55672;SDS011;41554;45.366;20.400;2022-09-03T14:22:12;17.40;;;3.92;;
55672;SDS011;41554;45.366;20.400;2022-09-03T14:24:55;13.80;;;4.22;;
55672;SDS011;41554;45.366;20.400;2022-09-03T14:27:25;4.07;;;2.72;;
55672;SDS011;41554;45.366;20.400;2022-09-03T14:29:52;5.57;;;3.22;;
55672;SDS011;41554;45.366;20.400;2022-09-03T15:00:20;6.90;;;4.40;;
55672;SDS011;41554;45.366;20.400;2022-09-03T15:05:14;6.03;;;3.90;;
55672;SDS011;41554;45.366;20.400;2022-09-03T15:10:17;4.63;;;3.13;;
55672;SDS011;41554;45.366;20.400;2022-09-03T15:12:53;3.88;;;2.72;;
55672;SDS011;41554;45.366;20.400;2022-09-03T15:20:57;6.82;;;3.47;;
55672;SDS011;41554;45.366;20.400;2022-09-03T15:28:34;6.38;;;3.25;;
55672;SDS011;41554;45.366;20.400;2022-09-03T15:31:21;4.68;;;3.60;;
55672;SDS011;41554;45.366;20.400;2022-09-03T15:36:35;3.47;;;2.40;;
55672;SDS011;41554;45.366;20.400;2022-09-03T15:39:07;4.88;;;3.05;;
55672;SDS011;41554;45.366;20.400;2022-09-03T15:44:05;2.80;;;2.38;;
55672;SDS011;41554;45.366;20.400;2022-09-03T15:49:02;5.13;;;3.25;;
55672;SDS011;41554;45.366;20.400;2022-09-03T15:51:31;5.05;;;3.45;;
55672;SDS011;41554;45.366;20.400;2022-09-03T16:04:00;4.72;;;3.30;;
55672;SDS011;41554;45.366;20.400;2022-09-03T16:09:09;6.43;;;2.95;;
55672;SDS011;41554;45.366;20.400;2022-09-03T16:14:34;15.02;;;3.05;;
55672;SDS011;41554;45.366;20.400;2022-09-03T16:17:08;4.68;;;3.42;;
55672;SDS011;41554;45.366;20.400;2022-09-03T16:19:53;5.95;;;3.25;;
55672;SDS011;41554;45.366;20.400;2022-09-03T16:27:57;6.30;;;3.83;;
55672;SDS011;41554;45.366;20.400;2022-09-03T16:35:33;5.95;;;4.40;;
55672;SDS011;41554;45.366;20.400;2022-09-03T16:45:42;4.75;;;3.25;;
55672;SDS011;41554;45.366;20.400;2022-09-03T17:01:31;9.43;;;4.03;;
55672;SDS011;41554;45.366;20.400;2022-09-03T17:19:52;6.90;;;4.25;;
55672;SDS011;41554;45.366;20.400;2022-09-03T17:25:28;9.18;;;4.80;;
55672;SDS011;41554;45.366;20.400;2022-09-03T17:27:58;7.07;;;4.18;;
55672;SDS011;41554;45.366;20.400;2022-09-03T17:30:28;4.82;;;3.38;;
55672;SDS011;41554;45.366;20.400;2022-09-03T17:43:22;6.68;;;4.13;;
55672;SDS011;41554;45.366;20.400;2022-09-03T17:45:58;6.07;;;4.60;;
55672;SDS011;41554;45.366;20.400;2022-09-03T17:53:45;4.50;;;3.25;;
55672;SDS011;41554;45.366;20.400;2022-09-03T17:56:27;4.90;;;3.55;;
55672;SDS011;41554;45.366;20.400;2022-09-03T18:01:34;5.85;;;3.78;;
55672;SDS011;41554;45.366;20.400;2022-09-03T18:07:12;4.28;;;3.38;;
55672;SDS011;41554;45.366;20.400;2022-09-03T18:12:42;4.47;;;3.22;;
55672;SDS011;41554;45.366;20.400;2022-09-03T18:15:21;4.97;;;3.50;;
55672;SDS011;41554;45.366;20.400;2022-09-03T18:17:52;7.43;;;3.65;;
55672;SDS011;41554;45.366;20.400;2022-09-03T18:20:20;4.25;;;3.30;;
55672;SDS011;41554;45.366;20.400;2022-09-03T18:25:56;7.05;;;4.10;;
55672;SDS011;41554;45.366;20.400;2022-09-03T18:28:47;5.97;;;4.10;;
55672;SDS011;41554;45.366;20.400;2022-09-03T18:31:33;5.40;;;4.50;;
55672;SDS011;41554;45.366;20.400;2022-09-03T18:34:19;4.20;;;3.35;;
55672;SDS011;41554;45.366;20.400;2022-09-03T18:37:04;8.43;;;3.78;;
55672;SDS011;41554;45.366;20.400;2022-09-03T18:39:49;7.03;;;4.30;;
55672;SDS011;41554;45.366;20.400;2022-09-03T18:45:34;3.58;;;2.55;;
55672;SDS011;41554;45.366;20.400;2022-09-03T18:57:30;4.53;;;3.58;;
55672;SDS011;41554;45.366;20.400;2022-09-03T19:00:15;4.40;;;3.67;;
55672;SDS011;41554;45.366;20.400;2022-09-03T19:06:21;6.22;;;4.60;;
55672;SDS011;41554;45.366;20.400;2022-09-03T19:15:08;4.88;;;3.60;;
55672;SDS011;41554;45.366;20.400;2022-09-03T19:21:21;5.18;;;4.13;;
55672;SDS011;41554;45.366;20.400;2022-09-03T19:24:02;5.13;;;3.90;;
55672;SDS011;41554;45.366;20.400;2022-09-03T19:26:50;10.02;;;3.53;;
55672;SDS011;41554;45.366;20.400;2022-09-03T19:29:41;5.75;;;3.60;;
55672;SDS011;41554;45.366;20.400;2022-09-03T19:32:45;10.35;;;6.03;;
55672;SDS011;41554;45.366;20.400;2022-09-03T19:35:41;8.70;;;5.00;;
55672;SDS011;41554;45.366;20.400;2022-09-03T19:41:37;6.93;;;5.47;;
55672;SDS011;41554;45.366;20.400;2022-09-03T19:47:11;4.15;;;3.08;;
55672;SDS011;41554;45.366;20.400;2022-09-03T19:52:54;5.65;;;3.90;;
55672;SDS011;41554;45.366;20.400;2022-09-03T19:55:44;4.60;;;4.00;;
55672;SDS011;41554;45.366;20.400;2022-09-03T19:58:30;7.05;;;4.28;;
55672;SDS011;41554;45.366;20.400;2022-09-03T20:01:18;7.47;;;4.65;;
55672;SDS011;41554;45.366;20.400;2022-09-03T20:04:11;4.93;;;3.95;;
55672;SDS011;41554;45.366;20.400;2022-09-03T20:06:56;6.68;;;4.35;;
55672;SDS011;41554;45.366;20.400;2022-09-03T20:09:42;5.53;;;4.38;;
55672;SDS011;41554;45.366;20.400;2022-09-03T20:12:30;8.05;;;4.25;;
55672;SDS011;41554;45.366;20.400;2022-09-03T20:14:58;9.98;;;3.72;;
55672;SDS011;41554;45.366;20.400;2022-09-03T20:17:48;8.48;;;5.00;;
55672;SDS011;41554;45.366;20.400;2022-09-03T20:20:28;4.63;;;4.15;;
55672;SDS011;41554;45.366;20.400;2022-09-03T20:22:59;5.22;;;3.65;;
55672;SDS011;41554;45.366;20.400;2022-09-03T20:33:14;7.90;;;5.15;;
55672;SDS011;41554;45.366;20.400;2022-09-03T20:55:13;6.70;;;4.65;;
55672;SDS011;41554;45.366;20.400;2022-09-03T21:00:16;6.90;;;4.63;;
55672;SDS011;41554;45.366;20.400;2022-09-03T21:10:36;4.78;;;3.88;;
55672;SDS011;41554;45.366;20.400;2022-09-03T21:23:38;15.80;;;5.80;;
55672;SDS011;41554;45.366;20.400;2022-09-03T21:26:19;5.55;;;4.30;;
55672;SDS011;41554;45.366;20.400;2022-09-03T21:33:38;8.02;;;5.00;;
55672;SDS011;41554;45.366;20.400;2022-09-03T21:36:05;6.38;;;4.40;;
55672;SDS011;41554;45.366;20.400;2022-09-03T21:38:33;6.15;;;5.10;;
55672;SDS011;41554;45.366;20.400;2022-09-03T21:41:18;7.32;;;4.18;;
55672;SDS011;41554;45.366;20.400;2022-09-03T21:43:49;7.20;;;4.82;;